createdAt,value
2019-04-14T00:04:03.040Z,15.70
2019-04-14T00:09:10.343Z,16.30
2019-04-14T00:14:19.029Z,15.19
2019-04-14T00:19:28.397Z,16.96
2019-04-14T00:24:36.306Z,15.82
2019-04-14T00:29:45.678Z,14.42
2019-04-14T00:34:52.777Z,15.72
2019-04-14T00:39:59.953Z,17.19
2019-04-14T00:45:11.227Z,15.09
2019-04-14T00:50:08.491Z,17.84
2019-04-14T00:55:18.127Z,14.93
2019-04-14T01:00:25.467Z,16.03
2019-04-14T01:05:34.459Z,14.74
2019-04-14T01:10:41.163Z,15.92
2019-04-14T01:15:58.604Z,15.53
2019-04-14T01:20:56.201Z,15.05
2019-04-14T01:26:05.033Z,16.13
2019-04-14T01:31:12.350Z,16.95
2019-04-14T01:36:21.254Z,16.03
2019-04-14T01:41:28.711Z,15.84
2019-04-14T01:46:37.415Z,15.08
2019-04-14T01:51:44.769Z,16.07
2019-04-14T01:56:53.655Z,15.67
2019-04-14T02:02:01.007Z,15.73
2019-04-14T02:07:10.201Z,17.68
2019-04-14T02:12:17.065Z,15.49
2019-04-14T02:17:26.594Z,14.24
2019-04-14T02:22:35.596Z,15.68
2019-04-14T02:27:45.039Z,13.80
2019-04-14T02:33:23.542Z,16.07
2019-04-14T02:38:34.090Z,14.87
2019-04-14T02:43:43.200Z,14.68
2019-04-14T02:48:50.807Z,14.80
2019-04-14T02:53:50.126Z,15.56
2019-04-14T02:58:51.979Z,15.23
2019-04-14T03:03:56.464Z,14.55
2019-04-14T03:09:32.735Z,13.54
2019-04-14T03:14:19.735Z,16.34
2019-04-14T03:19:27.278Z,14.66
2019-04-14T03:24:32.739Z,13.58
2019-04-14T03:29:40.783Z,12.58
2019-04-14T03:35:30.210Z,14.10
2019-04-14T03:39:51.371Z,14.90
2019-04-14T03:45:03.748Z,14.57
2019-04-14T03:55:09.431Z,13.36
2019-04-14T04:00:00.790Z,14.26
2019-04-14T04:05:09.031Z,14.49
2019-04-14T04:10:17.978Z,13.24
2019-04-14T04:15:25.632Z,13.32
2019-04-14T04:20:32.935Z,16.86
2019-04-14T04:25:42.142Z,12.87
2019-04-14T04:30:49.416Z,16.21
2019-04-14T04:35:56.732Z,14.42
2019-04-14T04:41:05.869Z,12.27
2019-04-14T04:46:13.410Z,12.39
2019-04-14T04:51:22.431Z,13.71
2019-04-14T04:56:29.736Z,14.26
2019-04-14T05:01:38.644Z,14.63
2019-04-14T05:06:46.054Z,14.65
2019-04-14T05:11:55.164Z,13.79
2019-04-14T05:17:02.250Z,13.84
2019-04-14T05:22:14.805Z,13.39
2019-04-14T05:27:21.063Z,13.10
2019-04-14T05:32:28.849Z,11.61
2019-04-14T05:37:37.827Z,13.37
2019-04-14T05:42:45.172Z,11.79
2019-04-14T05:47:54.356Z,12.64
2019-04-14T05:53:02.173Z,11.49
2019-04-14T05:58:09.945Z,11.72
2019-04-14T06:03:16.744Z,11.79
2019-04-14T06:08:24.774Z,11.39
2019-04-14T06:13:33.068Z,11.16
2019-04-14T06:18:41.293Z,12.94
2019-04-14T06:23:49.591Z,10.17
2019-04-14T06:28:57.943Z,10.88
2019-04-14T06:34:06.137Z,10.40
2019-04-14T06:39:14.306Z,10.21
2019-04-14T06:44:22.572Z,11.24
2019-04-14T06:49:31.187Z,10.41
2019-04-14T06:54:39.469Z,13.36
2019-04-14T06:59:47.806Z,11.03
2019-04-14T07:04:56.177Z,12.74
2019-04-14T07:10:04.468Z,10.74
2019-04-14T07:15:12.725Z,10.95
2019-04-14T07:20:21.107Z,12.45
2019-04-14T07:25:29.326Z,11.18
2019-04-14T07:30:37.678Z,11.20
2019-04-14T07:35:45.985Z,10.53
2019-04-14T08:32:19.567Z,11.24
2019-04-14T09:18:34.225Z,10.56
2019-04-14T09:23:42.882Z,11.91
2019-04-14T09:28:51.322Z,10.93
2019-04-14T09:34:01.765Z,12.18
2019-04-14T09:38:59.982Z,13.71
2019-04-14T09:44:08.617Z,13.31
2019-04-14T09:49:17.021Z,18.36
2019-04-14T09:54:25.761Z,14.13
2019-04-14T09:59:34.101Z,15.63
2019-04-14T10:04:42.457Z,12.24
2019-04-14T10:09:50.809Z,13.29
2019-04-14T10:14:59.224Z,11.24
2019-04-14T10:20:07.465Z,11.75
2019-04-14T10:25:16.250Z,17.05
2019-04-14T10:30:24.711Z,16.02
2019-04-14T10:35:33.018Z,13.75
2019-04-14T10:40:41.339Z,14.58
2019-04-14T10:45:49.687Z,19.93
2019-04-14T10:50:58.231Z,16.81
2019-04-14T10:56:06.667Z,18.54
2019-04-14T11:01:14.865Z,15.50
2019-04-14T11:06:23.296Z,25.84
2019-04-14T11:11:32.158Z,24.52
2019-04-14T11:16:40.624Z,22.03
2019-04-14T11:21:48.924Z,17.49
2019-04-14T11:26:57.351Z,15.97
2019-04-14T11:32:05.503Z,13.81
2019-04-14T11:37:13.920Z,16.67
2019-04-14T11:42:22.279Z,16.66
2019-04-14T11:47:30.646Z,15.78
2019-04-14T11:52:39.012Z,14.08
2019-04-14T11:57:46.515Z,14.48
2019-04-14T12:02:54.564Z,16.63
2019-04-14T12:08:03.003Z,14.86
2019-04-14T12:13:11.294Z,15.32
2019-04-14T12:18:19.848Z,13.53
2019-04-14T12:23:28.100Z,12.71
2019-04-14T12:28:36.414Z,15.93
2019-04-14T12:33:44.853Z,17.91
2019-04-14T12:38:53.113Z,22.71
2019-04-14T12:44:01.427Z,12.28
2019-04-14T12:49:10.334Z,14.20
2019-04-14T12:54:18.682Z,16.61
2019-04-14T12:59:26.995Z,16.54
2019-04-14T13:04:35.268Z,12.32
2019-04-14T13:09:44.025Z,14.96
2019-04-14T13:14:54.025Z,17.56
2019-04-14T13:19:52.436Z,15.93
2019-04-14T13:38:43.154Z,22.04
2019-04-14T13:39:51.937Z,20.32
2019-04-14T13:45:00.125Z,17.02
2019-04-14T13:50:08.466Z,15.43
2019-04-14T13:55:17.007Z,17.17
2019-04-14T14:00:25.418Z,19.23
2019-04-14T14:05:33.687Z,18.60
2019-04-14T14:10:51.299Z,16.25
2019-04-14T14:15:47.950Z,16.06
2019-04-14T14:20:56.626Z,17.72
2019-04-14T14:26:06.422Z,16.19
2019-04-14T14:31:14.667Z,15.30
2019-04-14T14:36:22.862Z,16.17
2019-04-14T14:41:31.148Z,18.38
2019-04-14T14:46:39.491Z,30.46
2019-04-14T14:51:47.638Z,20.61
2019-04-14T14:56:56.054Z,21.83
2019-04-14T15:02:04.400Z,23.89
2019-04-14T15:07:12.499Z,18.74
2019-04-14T15:12:21.058Z,20.10
2019-04-14T15:17:29.225Z,17.31
2019-04-14T15:22:37.825Z,18.87
2019-04-14T15:27:46.223Z,18.00
2019-04-14T15:32:54.497Z,18.30
2019-04-14T15:38:02.895Z,21.03
2019-04-14T15:43:11.224Z,19.75
2019-04-14T15:48:19.352Z,17.43
2019-04-14T15:53:37.759Z,17.81
2019-04-14T15:58:35.762Z,19.56
2019-04-14T16:03:44.216Z,16.27
2019-04-14T16:08:53.948Z,17.79
2019-04-14T16:14:02.169Z,13.77
2019-04-14T16:19:10.415Z,15.74
2019-04-14T16:24:18.789Z,15.54
2019-04-14T16:29:27.083Z,14.13
2019-04-14T16:34:35.367Z,20.40
2019-04-14T16:39:43.598Z,17.25
2019-04-14T16:44:52.012Z,16.80
2019-04-14T16:50:00.239Z,14.63
2019-04-14T16:55:08.487Z,12.15
2019-04-14T17:00:16.801Z,15.81
2019-04-14T17:05:25.002Z,12.92
2019-04-14T17:10:33.454Z,12.41
2019-04-14T17:15:41.859Z,12.02
2019-04-14T17:20:50.151Z,14.75
2019-04-14T17:25:58.342Z,13.36
2019-04-14T17:31:06.808Z,18.36
2019-04-14T17:36:15.567Z,14.64
2019-04-14T17:41:23.860Z,13.51
2019-04-14T17:46:32.030Z,19.76
2019-04-14T17:51:40.581Z,15.68
2019-04-14T17:56:49.076Z,17.02
2019-04-14T18:01:57.390Z,11.48
2019-04-14T18:07:05.644Z,13.74
2019-04-14T18:12:14.406Z,14.00
2019-04-14T18:17:22.968Z,12.37
2019-04-14T18:22:31.858Z,12.64
2019-04-14T18:27:40.358Z,12.37
2019-04-14T18:32:48.703Z,21.25
2019-04-14T18:37:56.799Z,14.26
2019-04-14T18:43:05.142Z,15.94
2019-04-14T18:48:15.193Z,14.97
2019-04-14T18:53:13.690Z,15.51
2019-04-14T18:58:22.232Z,23.17
2019-04-14T19:03:30.859Z,14.77
2019-04-14T19:08:39.536Z,17.41
2019-04-14T19:13:48.202Z,14.62
2019-04-14T19:18:57.100Z,11.75
2019-04-14T19:24:05.310Z,12.25
2019-04-14T19:29:13.705Z,13.82
2019-04-14T19:34:24.593Z,16.04
2019-04-14T19:39:23.083Z,14.80
2019-04-14T19:44:31.408Z,16.53
2019-04-14T19:49:39.592Z,13.24
2019-04-14T19:54:47.678Z,13.44
2019-04-14T19:59:58.775Z,15.12
2019-04-14T20:04:57.043Z,14.06
2019-04-14T20:10:05.244Z,12.55
2019-04-14T20:15:13.470Z,11.77
2019-04-14T20:20:21.550Z,11.23
2019-04-14T20:25:33.810Z,12.65
2019-04-14T20:30:37.638Z,12.21
2019-04-14T20:35:45.888Z,13.44
2019-04-14T20:40:54.045Z,14.04
2019-04-14T20:46:02.178Z,12.40
2019-04-14T20:51:10.307Z,11.63
2019-04-14T20:56:18.501Z,9.55
2019-04-14T21:01:27.211Z,12.51
2019-04-14T21:06:35.409Z,10.07
2019-04-14T21:11:43.662Z,10.85
2019-04-14T21:16:51.774Z,8.00
2019-04-14T21:21:59.894Z,8.77
2019-04-14T21:27:08.161Z,8.21
2019-04-14T21:32:16.261Z,6.76
2019-04-14T21:37:24.329Z,8.25
2019-04-14T21:42:32.470Z,6.79
2019-04-14T21:47:40.637Z,9.10
2019-04-14T21:52:49.847Z,8.36
2019-04-14T21:57:56.400Z,7.83
2019-04-14T22:03:05.370Z,7.32
2019-04-14T22:08:13.742Z,5.46
2019-04-14T22:13:21.920Z,6.74
2019-04-14T22:18:30.345Z,5.33
2019-04-14T22:23:37.282Z,6.86
2019-04-14T22:28:45.375Z,7.20
2019-04-14T22:33:53.603Z,6.18
2019-04-14T22:39:01.638Z,5.63
2019-04-14T22:44:09.932Z,8.07
2019-04-14T22:49:18.229Z,7.34
2019-04-14T22:54:26.728Z,5.14
2019-04-14T22:59:34.932Z,6.02
2019-04-14T23:04:43.085Z,6.57
2019-04-14T23:09:51.364Z,5.92
2019-04-14T23:14:59.642Z,6.78
2019-04-14T23:20:07.965Z,6.44
2019-04-14T23:25:16.308Z,8.62
2019-04-14T23:30:25.469Z,9.64
2019-04-14T23:35:33.661Z,7.68
2019-04-14T23:40:42.037Z,10.03
2019-04-14T23:45:50.510Z,6.87
2019-04-14T23:50:58.689Z,7.51
2019-04-14T23:56:06.977Z,5.66
